SWA728 KDEN-KSLC
Flight info
| Callsign | SWA728 |
|---|---|
| Flight time | 1h 11m |
| Altitude | 30000 |
| Route | ZIMMR4 CHNGY EKR PITTT2 |
| Aircraft | B738/M-SDE2E3FGHIRWXY/LB1 |
Departure
| Time | 2026-05-05 14:56 |
|---|---|
| Airport | Denver International Airport (KDEN) |
Arrival
| Time | 2026-05-05 16:07 |
|---|---|
| Airport | Salt Lake City International Airport (KSLC) |
| Time | Latitude | Longitude | Altitude | Speed | Heading |
|---|---|---|---|---|---|
| 2026-05-05 14:42 | 39.86261 | -104.67687 | 5377 ft | 0 kts | 360° |
| 2026-05-05 14:46 | 39.86249 | -104.67687 | 5372 ft | 2 kts | 360° |
| 2026-05-05 14:46 | 39.86232 | -104.67687 | 5372 ft | 2 kts | 360° |
| 2026-05-05 14:46 | 39.86216 | -104.67687 | 5372 ft | 2 kts | 0° |
| 2026-05-05 14:46 | 39.86199 | -104.67686 | 5375 ft | 2 kts | 321° |
| 2026-05-05 14:47 | 39.86195 | -104.67667 | 5371 ft | 2 kts | 270° |
| 2026-05-05 14:47 | 39.86194 | -104.67650 | 5370 ft | 1 kts | 271° |
| 2026-05-05 14:49 | 39.86195 | -104.67657 | 5371 ft | 2 kts | 271° |
| 2026-05-05 14:50 | 39.86195 | -104.67696 | 5372 ft | 6 kts | 271° |
| 2026-05-05 14:50 | 39.86179 | -104.67763 | 5376 ft | 10 kts | 224° |
| 2026-05-05 14:50 | 39.86137 | -104.67843 | 5376 ft | 13 kts | 268° |
| 2026-05-05 14:50 | 39.86138 | -104.67974 | 5382 ft | 16 kts | 270° |
| 2026-05-05 14:51 | 39.86139 | -104.68134 | 5385 ft | 18 kts | 270° |
| 2026-05-05 14:51 | 39.86139 | -104.68298 | 5391 ft | 18 kts | 270° |
| 2026-05-05 14:51 | 39.86140 | -104.68457 | 5391 ft | 17 kts | 270° |
| 2026-05-05 14:51 | 39.86088 | -104.68517 | 5389 ft | 10 kts | 172° |
| 2026-05-05 14:52 | 39.86013 | -104.68510 | 5387 ft | 13 kts | 180° |
| 2026-05-05 14:52 | 39.85900 | -104.68511 | 5382 ft | 20 kts | 181° |
| 2026-05-05 14:52 | 39.85744 | -104.68514 | 5375 ft | 25 kts | 181° |
| 2026-05-05 14:52 | 39.85569 | -104.68516 | 5372 ft | 24 kts | 180° |
| 2026-05-05 14:53 | 39.85406 | -104.68519 | 5374 ft | 23 kts | 180° |
| 2026-05-05 14:53 | 39.85255 | -104.68520 | 5372 ft | 15 kts | 180° |
| 2026-05-05 14:53 | 39.85207 | -104.68580 | 5372 ft | 11 kts | 267° |
| 2026-05-05 14:53 | 39.85203 | -104.68693 | 5367 ft | 17 kts | 268° |
| 2026-05-05 14:54 | 39.85200 | -104.68888 | 5359 ft | 26 kts | 269° |
| 2026-05-05 14:54 | 39.85197 | -104.69141 | 5348 ft | 28 kts | 271° |
| 2026-05-05 14:54 | 39.85202 | -104.69383 | 5341 ft | 26 kts | 270° |
| 2026-05-05 14:54 | 39.85203 | -104.69575 | 5350 ft | 17 kts | 271° |
| 2026-05-05 14:55 | 39.85237 | -104.69660 | 5351 ft | 10 kts | 8° |
| 2026-05-05 14:55 | 39.85257 | -104.69659 | 5351 ft | 0 kts | 1° |
| 2026-05-05 14:55 | 39.85275 | -104.69658 | 5352 ft | 16 kts | 0° |
| 2026-05-05 14:55 | 39.85610 | -104.69654 | 5362 ft | 79 kts | 0° |
| 2026-05-05 14:56 | 39.86353 | -104.69647 | 5361 ft | 133 kts | 0° |
| 2026-05-05 14:56 | 39.87418 | -104.69644 | 5558 ft | 163 kts | 2° |
| 2026-05-05 14:56 | 39.88582 | -104.69640 | 6219 ft | 174 kts | 5° |
| 2026-05-05 14:56 | 39.89798 | -104.69608 | 6988 ft | 177 kts | 6° |
| 2026-05-05 14:57 | 39.91107 | -104.69733 | 7340 ft | 207 kts | 346° |
| 2026-05-05 14:57 | 39.92390 | -104.70814 | 7540 ft | 236 kts | 313° |
| 2026-05-05 14:57 | 39.93131 | -104.72817 | 7696 ft | 263 kts | 277° |
| 2026-05-05 14:57 | 39.93185 | -104.75295 | 8001 ft | 284 kts | 268° |
| 2026-05-05 14:58 | 39.93163 | -104.77923 | 8607 ft | 296 kts | 266° |
| 2026-05-05 14:58 | 39.93249 | -104.80613 | 9483 ft | 296 kts | 279° |
| 2026-05-05 14:58 | 39.94030 | -104.83123 | 9911 ft | 299 kts | 303° |
| 2026-05-05 14:58 | 39.95446 | -104.85049 | 10039 ft | 291 kts | 316° |
| 2026-05-05 14:59 | 39.96979 | -104.86767 | 10079 ft | 294 kts | 317° |
| 2026-05-05 14:59 | 39.98522 | -104.88577 | 10579 ft | 299 kts | 306° |
| 2026-05-05 14:59 | 39.99462 | -104.90907 | 11476 ft | 286 kts | 280° |
| 2026-05-05 14:59 | 39.99704 | -104.93436 | 12461 ft | 279 kts | 271° |
| 2026-05-05 15:00 | 39.99724 | -104.96018 | 12929 ft | 295 kts | 267° |
| 2026-05-05 15:00 | 39.99669 | -104.97834 | 13043 ft | 310 kts | 266° |
| 2026-05-05 15:00 | 39.99509 | -105.01679 | 13851 ft | 321 kts | 266° |
| 2026-05-05 15:00 | 39.99390 | -105.04589 | 14630 ft | 322 kts | 266° |
| 2026-05-05 15:01 | 39.99280 | -105.07482 | 15283 ft | 326 kts | 267° |
| 2026-05-05 15:01 | 39.99174 | -105.10464 | 15919 ft | 331 kts | 267° |
| 2026-05-05 15:01 | 39.99073 | -105.13476 | 16596 ft | 335 kts | 267° |
| 2026-05-05 15:01 | 39.98974 | -105.16523 | 17260 ft | 338 kts | 268° |
| 2026-05-05 15:02 | 39.98876 | -105.19608 | 17930 ft | 342 kts | 268° |
| 2026-05-05 15:02 | 39.98778 | -105.22727 | 18555 ft | 346 kts | 268° |
| 2026-05-05 15:02 | 39.98678 | -105.25882 | 19138 ft | 349 kts | 268° |
| 2026-05-05 15:02 | 39.98578 | -105.29053 | 19733 ft | 352 kts | 267° |
| 2026-05-05 15:03 | 39.98475 | -105.32264 | 20228 ft | 357 kts | 267° |
| 2026-05-05 15:03 | 39.98371 | -105.35509 | 20817 ft | 360 kts | 267° |
| 2026-05-05 15:03 | 39.98265 | -105.38778 | 21415 ft | 361 kts | 267° |
| 2026-05-05 15:03 | 39.98157 | -105.42064 | 21973 ft | 364 kts | 267° |
| 2026-05-05 15:04 | 39.98048 | -105.45377 | 22508 ft | 368 kts | 267° |
| 2026-05-05 15:04 | 39.97937 | -105.48724 | 23052 ft | 371 kts | 267° |
| 2026-05-05 15:04 | 39.97862 | -105.50953 | 23386 ft | 373 kts | 267° |
| 2026-05-05 15:04 | 39.97748 | -105.54344 | 23848 ft | 375 kts | 266° |
| 2026-05-05 15:05 | 39.97516 | -105.61151 | 24858 ft | 376 kts | 266° |
| 2026-05-05 15:05 | 39.97358 | -105.65709 | 25442 ft | 377 kts | 266° |
| 2026-05-05 15:05 | 39.97333 | -105.67987 | 25584 ft | 384 kts | 270° |
| 2026-05-05 15:06 | 39.97456 | -105.71519 | 25652 ft | 396 kts | 272° |
| 2026-05-05 15:06 | 39.97668 | -105.75143 | 25795 ft | 406 kts | 273° |
| 2026-05-05 15:06 | 39.97902 | -105.78846 | 25978 ft | 412 kts | 273° |
| 2026-05-05 15:06 | 39.98131 | -105.82586 | 26304 ft | 415 kts | 272° |
| 2026-05-05 15:07 | 39.98345 | -105.86328 | 26851 ft | 412 kts | 272° |
| 2026-05-05 15:07 | 39.98543 | -105.90026 | 27532 ft | 406 kts | 271° |
| 2026-05-05 15:07 | 39.98731 | -105.93681 | 28202 ft | 401 kts | 271° |
| 2026-05-05 15:07 | 39.98909 | -105.97287 | 28816 ft | 397 kts | 271° |
| 2026-05-05 15:08 | 39.99083 | -106.00878 | 29246 ft | 398 kts | 271° |
| 2026-05-05 15:08 | 39.99256 | -106.04500 | 29531 ft | 401 kts | 271° |
| 2026-05-05 15:08 | 39.99428 | -106.08135 | 29816 ft | 403 kts | 271° |
| 2026-05-05 15:09 | 39.99773 | -106.15464 | 29794 ft | 404 kts | 271° |
| 2026-05-05 15:09 | 40.00115 | -106.22738 | 29792 ft | 404 kts | 271° |
| 2026-05-05 15:10 | 40.00454 | -106.30050 | 29798 ft | 404 kts | 271° |
| 2026-05-05 15:10 | 40.00787 | -106.37370 | 29793 ft | 405 kts | 272° |
| 2026-05-05 15:11 | 40.01117 | -106.44717 | 29797 ft | 407 kts | 271° |
| 2026-05-05 15:11 | 40.01443 | -106.52096 | 29803 ft | 408 kts | 271° |
| 2026-05-05 15:12 | 40.01764 | -106.59501 | 29787 ft | 409 kts | 271° |
| 2026-05-05 15:12 | 40.02081 | -106.66917 | 29803 ft | 410 kts | 271° |
| 2026-05-05 15:13 | 40.02395 | -106.74346 | 29800 ft | 410 kts | 272° |
| 2026-05-05 15:13 | 40.02704 | -106.81784 | 29790 ft | 411 kts | 271° |
| 2026-05-05 15:14 | 40.03009 | -106.89219 | 29799 ft | 410 kts | 271° |
| 2026-05-05 15:14 | 40.03308 | -106.96653 | 29802 ft | 410 kts | 271° |
| 2026-05-05 15:15 | 40.03603 | -107.04075 | 29806 ft | 409 kts | 271° |
| 2026-05-05 15:15 | 40.03890 | -107.11449 | 29815 ft | 410 kts | 271° |
| 2026-05-05 15:16 | 40.04175 | -107.18872 | 29808 ft | 410 kts | 271° |
| 2026-05-05 15:16 | 40.04456 | -107.26323 | 29830 ft | 412 kts | 272° |
| 2026-05-05 15:17 | 40.04734 | -107.33802 | 29817 ft | 413 kts | 272° |
| 2026-05-05 15:17 | 40.05006 | -107.41287 | 29815 ft | 413 kts | 272° |
| 2026-05-05 15:18 | 40.05275 | -107.48785 | 29828 ft | 414 kts | 272° |
| 2026-05-05 15:18 | 40.05539 | -107.56285 | 29825 ft | 414 kts | 272° |
| 2026-05-05 15:19 | 40.05798 | -107.63797 | 29829 ft | 414 kts | 272° |
| 2026-05-05 15:19 | 40.06052 | -107.71313 | 29831 ft | 415 kts | 272° |
| 2026-05-05 15:20 | 40.06302 | -107.78831 | 29829 ft | 415 kts | 272° |
| 2026-05-05 15:20 | 40.06426 | -107.82597 | 29943 ft | 415 kts | 272° |
| 2026-05-05 15:20 | 40.06548 | -107.86358 | 29948 ft | 415 kts | 272° |
| 2026-05-05 15:21 | 40.06794 | -107.93891 | 29944 ft | 415 kts | 272° |
| 2026-05-05 15:21 | 40.07127 | -108.01421 | 29936 ft | 416 kts | 273° |
| 2026-05-05 15:22 | 40.07487 | -108.08953 | 29915 ft | 416 kts | 273° |
| 2026-05-05 15:22 | 40.07834 | -108.16493 | 29846 ft | 416 kts | 273° |
| 2026-05-05 15:23 | 40.08170 | -108.24028 | 29837 ft | 416 kts | 273° |
| 2026-05-05 15:23 | 40.08498 | -108.31567 | 29836 ft | 416 kts | 272° |
| 2026-05-05 15:24 | 40.08819 | -108.39063 | 29837 ft | 416 kts | 272° |
| 2026-05-05 15:24 | 40.09138 | -108.46608 | 29828 ft | 416 kts | 273° |
| 2026-05-05 15:25 | 40.09451 | -108.54152 | 29840 ft | 416 kts | 273° |
| 2026-05-05 15:25 | 40.09761 | -108.61705 | 29835 ft | 417 kts | 272° |
| 2026-05-05 15:26 | 40.10066 | -108.69288 | 29833 ft | 418 kts | 272° |
| 2026-05-05 15:26 | 40.10367 | -108.76874 | 29824 ft | 419 kts | 272° |
| 2026-05-05 15:27 | 40.10664 | -108.84471 | 29825 ft | 420 kts | 273° |
| 2026-05-05 15:27 | 40.10956 | -108.92097 | 29820 ft | 421 kts | 273° |
| 2026-05-05 15:28 | 40.11243 | -108.99751 | 29816 ft | 422 kts | 273° |
| 2026-05-05 15:28 | 40.11526 | -109.07422 | 29804 ft | 423 kts | 272° |
| 2026-05-05 15:29 | 40.11805 | -109.15091 | 29793 ft | 422 kts | 273° |
| 2026-05-05 15:29 | 40.12078 | -109.22755 | 29799 ft | 422 kts | 272° |
| 2026-05-05 15:30 | 40.12347 | -109.30424 | 29795 ft | 422 kts | 272° |
| 2026-05-05 15:30 | 40.12609 | -109.38040 | 29804 ft | 422 kts | 272° |
| 2026-05-05 15:31 | 40.12867 | -109.45707 | 29810 ft | 423 kts | 272° |
| 2026-05-05 15:31 | 40.13121 | -109.53393 | 29802 ft | 424 kts | 272° |
| 2026-05-05 15:32 | 40.13370 | -109.61091 | 29797 ft | 425 kts | 272° |
| 2026-05-05 15:32 | 40.13615 | -109.68810 | 29792 ft | 425 kts | 272° |
| 2026-05-05 15:33 | 40.13855 | -109.76538 | 29773 ft | 426 kts | 272° |
| 2026-05-05 15:33 | 40.14090 | -109.84273 | 29776 ft | 426 kts | 272° |
| 2026-05-05 15:34 | 40.14319 | -109.92011 | 29786 ft | 425 kts | 273° |
| 2026-05-05 15:34 | 40.14544 | -109.99730 | 29779 ft | 424 kts | 273° |
| 2026-05-05 15:35 | 40.14763 | -110.07422 | 29796 ft | 424 kts | 272° |
| 2026-05-05 15:35 | 40.14954 | -110.15116 | 29795 ft | 423 kts | 271° |
| 2026-05-05 15:36 | 40.14905 | -110.22833 | 29810 ft | 425 kts | 270° |
| 2026-05-05 15:36 | 40.14795 | -110.30575 | 29817 ft | 427 kts | 270° |
| 2026-05-05 15:37 | 40.14703 | -110.38357 | 29822 ft | 429 kts | 270° |
| 2026-05-05 15:37 | 40.14625 | -110.46163 | 29827 ft | 430 kts | 270° |
| 2026-05-05 15:38 | 40.14546 | -110.53980 | 29837 ft | 429 kts | 270° |
| 2026-05-05 15:38 | 40.14463 | -110.61613 | 29469 ft | 411 kts | 270° |
| 2026-05-05 15:38 | 40.14420 | -110.65320 | 29082 ft | 406 kts | 270° |
| 2026-05-05 15:39 | 40.14378 | -110.68985 | 28722 ft | 401 kts | 270° |
| 2026-05-05 15:39 | 40.14334 | -110.72608 | 28304 ft | 397 kts | 270° |
| 2026-05-05 15:39 | 40.14291 | -110.76197 | 27904 ft | 394 kts | 270° |
| 2026-05-05 15:39 | 40.14246 | -110.79762 | 27495 ft | 390 kts | 270° |
| 2026-05-05 15:40 | 40.14199 | -110.83299 | 27084 ft | 388 kts | 271° |
| 2026-05-05 15:40 | 40.14153 | -110.86807 | 26689 ft | 385 kts | 270° |
| 2026-05-05 15:40 | 40.14106 | -110.90291 | 26307 ft | 382 kts | 270° |
| 2026-05-05 15:40 | 40.14059 | -110.93758 | 25922 ft | 380 kts | 270° |
| 2026-05-05 15:41 | 40.14010 | -110.97159 | 25554 ft | 378 kts | 270° |
| 2026-05-05 15:41 | 40.13960 | -111.00633 | 25151 ft | 377 kts | 270° |
| 2026-05-05 15:41 | 40.13911 | -111.04008 | 24775 ft | 375 kts | 271° |
| 2026-05-05 15:41 | 40.13860 | -111.07455 | 24383 ft | 374 kts | 271° |
| 2026-05-05 15:42 | 40.13810 | -111.10808 | 23997 ft | 373 kts | 270° |
| 2026-05-05 15:42 | 40.13758 | -111.14195 | 23601 ft | 373 kts | 270° |
| 2026-05-05 15:42 | 40.13705 | -111.17582 | 23157 ft | 373 kts | 270° |
| 2026-05-05 15:42 | 40.13650 | -111.20964 | 22740 ft | 372 kts | 270° |
| 2026-05-05 15:43 | 40.13594 | -111.24333 | 22324 ft | 370 kts | 270° |
| 2026-05-05 15:43 | 40.13537 | -111.27688 | 21919 ft | 369 kts | 270° |
| 2026-05-05 15:43 | 40.13479 | -111.31034 | 21529 ft | 367 kts | 270° |
| 2026-05-05 15:43 | 40.13421 | -111.34357 | 21140 ft | 365 kts | 270° |
| 2026-05-05 15:44 | 40.13362 | -111.37666 | 20789 ft | 363 kts | 270° |
| 2026-05-05 15:44 | 40.13303 | -111.40959 | 20398 ft | 362 kts | 270° |
| 2026-05-05 15:44 | 40.13244 | -111.44234 | 20035 ft | 360 kts | 270° |
| 2026-05-05 15:44 | 40.13184 | -111.47501 | 19686 ft | 359 kts | 270° |
| 2026-05-05 15:45 | 40.13123 | -111.50754 | 19319 ft | 358 kts | 269° |
| 2026-05-05 15:45 | 40.13112 | -111.54003 | 18933 ft | 357 kts | 277° |
| 2026-05-05 15:45 | 40.13779 | -111.57063 | 18873 ft | 346 kts | 296° |
| 2026-05-05 15:45 | 40.14827 | -111.59883 | 18723 ft | 347 kts | 298° |
| 2026-05-05 15:46 | 40.15929 | -111.62728 | 18588 ft | 354 kts | 298° |
| 2026-05-05 15:46 | 40.17033 | -111.65638 | 18419 ft | 359 kts | 298° |
| 2026-05-05 15:46 | 40.18122 | -111.68565 | 18266 ft | 357 kts | 297° |
| 2026-05-05 15:46 | 40.19197 | -111.71477 | 18097 ft | 355 kts | 297° |
| 2026-05-05 15:47 | 40.20263 | -111.74371 | 17936 ft | 352 kts | 297° |
| 2026-05-05 15:47 | 40.20967 | -111.76284 | 17863 ft | 350 kts | 298° |
| 2026-05-05 15:47 | 40.22371 | -111.80102 | 17717 ft | 348 kts | 297° |
| 2026-05-05 15:47 | 40.23419 | -111.82952 | 17575 ft | 347 kts | 297° |
| 2026-05-05 15:48 | 40.24464 | -111.85797 | 17438 ft | 347 kts | 297° |
| 2026-05-05 15:48 | 40.25510 | -111.88646 | 17284 ft | 348 kts | 297° |
| 2026-05-05 15:48 | 40.26557 | -111.91501 | 17132 ft | 348 kts | 297° |
| 2026-05-05 15:48 | 40.27901 | -111.94114 | 16898 ft | 346 kts | 318° |
| 2026-05-05 15:49 | 40.29818 | -111.95960 | 16645 ft | 341 kts | 331° |
| 2026-05-05 15:49 | 40.31866 | -111.97486 | 16345 ft | 337 kts | 333° |
| 2026-05-05 15:49 | 40.33887 | -111.98946 | 16065 ft | 335 kts | 333° |
| 2026-05-05 15:49 | 40.35916 | -112.00432 | 15778 ft | 334 kts | 332° |
| 2026-05-05 15:50 | 40.37929 | -112.01936 | 15502 ft | 333 kts | 332° |
| 2026-05-05 15:50 | 40.39932 | -112.03447 | 15236 ft | 332 kts | 332° |
| 2026-05-05 15:50 | 40.41968 | -112.04845 | 14947 ft | 329 kts | 342° |
| 2026-05-05 15:50 | 40.44207 | -112.05372 | 14672 ft | 326 kts | 356° |
| 2026-05-05 15:51 | 40.46469 | -112.05643 | 14362 ft | 326 kts | 355° |
| 2026-05-05 15:51 | 40.48721 | -112.05910 | 14063 ft | 323 kts | 356° |
| 2026-05-05 15:51 | 40.50947 | -112.06184 | 13756 ft | 320 kts | 355° |
| 2026-05-05 15:51 | 40.53154 | -112.06465 | 13429 ft | 317 kts | 355° |
| 2026-05-05 15:52 | 40.55331 | -112.06749 | 13110 ft | 313 kts | 355° |
| 2026-05-05 15:52 | 40.57489 | -112.07034 | 12808 ft | 310 kts | 355° |
| 2026-05-05 15:52 | 40.59625 | -112.07319 | 12506 ft | 307 kts | 355° |
| 2026-05-05 15:52 | 40.61739 | -112.07601 | 12209 ft | 304 kts | 355° |
| 2026-05-05 15:53 | 40.63837 | -112.07878 | 11991 ft | 300 kts | 355° |
| 2026-05-05 15:53 | 40.65205 | -112.08041 | 11929 ft | 297 kts | 355° |
| 2026-05-05 15:53 | 40.67252 | -112.08276 | 11820 ft | 295 kts | 356° |
| 2026-05-05 15:53 | 40.69328 | -112.08513 | 11716 ft | 305 kts | 355° |
| 2026-05-05 15:54 | 40.71458 | -112.08758 | 11602 ft | 310 kts | 355° |
| 2026-05-05 15:54 | 40.73607 | -112.09007 | 11469 ft | 310 kts | 355° |
| 2026-05-05 15:54 | 40.75747 | -112.09258 | 11343 ft | 307 kts | 355° |
| 2026-05-05 15:54 | 40.77872 | -112.09511 | 11223 ft | 306 kts | 355° |
| 2026-05-05 15:55 | 40.79992 | -112.09762 | 11138 ft | 305 kts | 355° |
| 2026-05-05 15:55 | 40.82105 | -112.10013 | 11025 ft | 305 kts | 355° |
| 2026-05-05 15:55 | 40.84239 | -112.10262 | 10628 ft | 313 kts | 355° |
| 2026-05-05 15:55 | 40.86378 | -112.10502 | 10602 ft | 302 kts | 355° |
| 2026-05-05 15:56 | 40.88457 | -112.10633 | 10566 ft | 295 kts | 354° |
| 2026-05-05 15:56 | 40.90509 | -112.10931 | 10576 ft | 301 kts | 352° |
| 2026-05-05 15:56 | 40.92612 | -112.11284 | 10563 ft | 308 kts | 352° |
| 2026-05-05 15:56 | 40.94718 | -112.11648 | 10551 ft | 310 kts | 352° |
| 2026-05-05 15:57 | 40.96869 | -112.12022 | 10485 ft | 305 kts | 352° |
| 2026-05-05 15:57 | 40.98921 | -112.12380 | 10399 ft | 297 kts | 352° |
| 2026-05-05 15:57 | 41.00942 | -112.12729 | 10216 ft | 291 kts | 352° |
| 2026-05-05 15:57 | 41.02934 | -112.13070 | 10099 ft | 285 kts | 352° |
| 2026-05-05 15:58 | 41.04876 | -112.13400 | 10073 ft | 279 kts | 349° |
| 2026-05-05 15:58 | 41.06819 | -112.13723 | 10072 ft | 286 kts | 350° |
| 2026-05-05 15:58 | 41.08812 | -112.14056 | 10087 ft | 291 kts | 350° |
| 2026-05-05 15:58 | 41.10837 | -112.14392 | 10102 ft | 293 kts | 352° |
| 2026-05-05 15:59 | 41.12866 | -112.14227 | 10051 ft | 296 kts | 15° |
| 2026-05-05 15:59 | 41.14665 | -112.12912 | 10041 ft | 299 kts | 41° |
| 2026-05-05 15:59 | 41.15907 | -112.10708 | 9779 ft | 300 kts | 66° |
| 2026-05-05 15:59 | 41.16311 | -112.08060 | 9506 ft | 290 kts | 93° |
| 2026-05-05 16:00 | 41.15907 | -112.05507 | 9262 ft | 279 kts | 109° |
| 2026-05-05 16:00 | 41.15168 | -112.03184 | 8980 ft | 269 kts | 127° |
| 2026-05-05 16:00 | 41.13785 | -112.01702 | 8782 ft | 248 kts | 162° |
| 2026-05-05 16:00 | 41.12159 | -112.01276 | 8669 ft | 232 kts | 178° |
| 2026-05-05 16:01 | 41.10587 | -112.01112 | 8519 ft | 222 kts | 178° |
| 2026-05-05 16:01 | 41.09070 | -112.00968 | 8377 ft | 216 kts | 178° |
| 2026-05-05 16:01 | 41.07574 | -112.00811 | 8249 ft | 215 kts | 176° |
| 2026-05-05 16:01 | 41.06090 | -112.00646 | 8130 ft | 213 kts | 176° |
| 2026-05-05 16:02 | 41.04620 | -112.00475 | 8002 ft | 210 kts | 176° |
| 2026-05-05 16:02 | 41.03172 | -112.00306 | 7862 ft | 208 kts | 175° |
| 2026-05-05 16:02 | 41.01742 | -112.00139 | 7724 ft | 205 kts | 175° |
| 2026-05-05 16:02 | 41.00334 | -111.99975 | 7602 ft | 200 kts | 176° |
| 2026-05-05 16:03 | 40.98986 | -111.99818 | 7472 ft | 189 kts | 176° |
| 2026-05-05 16:03 | 40.97699 | -111.99668 | 7340 ft | 184 kts | 176° |
| 2026-05-05 16:03 | 40.96438 | -111.99522 | 7266 ft | 179 kts | 176° |
| 2026-05-05 16:03 | 40.95169 | -111.99374 | 7055 ft | 188 kts | 175° |
| 2026-05-05 16:04 | 40.93861 | -111.99222 | 6838 ft | 189 kts | 176° |
| 2026-05-05 16:04 | 40.92586 | -111.99073 | 6618 ft | 183 kts | 175° |
| 2026-05-05 16:04 | 40.91361 | -111.98930 | 6423 ft | 171 kts | 175° |
| 2026-05-05 16:04 | 40.90229 | -111.98798 | 6217 ft | 162 kts | 174° |
| 2026-05-05 16:05 | 40.89116 | -111.98669 | 6003 ft | 161 kts | 174° |
| 2026-05-05 16:05 | 40.88009 | -111.98540 | 5788 ft | 160 kts | 175° |
| 2026-05-05 16:05 | 40.86902 | -111.98411 | 5534 ft | 159 kts | 174° |
| 2026-05-05 16:05 | 40.85807 | -111.98283 | 5327 ft | 159 kts | 175° |
| 2026-05-05 16:06 | 40.84723 | -111.98151 | 5107 ft | 155 kts | 174° |
| 2026-05-05 16:06 | 40.83652 | -111.98023 | 4869 ft | 153 kts | 174° |
| 2026-05-05 16:06 | 40.82588 | -111.97896 | 4649 ft | 155 kts | 174° |
| 2026-05-05 16:06 | 40.81536 | -111.97770 | 4457 ft | 149 kts | 175° |
| 2026-05-05 16:07 | 40.80511 | -111.97665 | 4245 ft | 146 kts | 175° |
| 2026-05-05 16:07 | 40.79592 | -111.97560 | 4227 ft | 113 kts | 175° |
| 2026-05-05 16:07 | 40.78962 | -111.97486 | 4230 ft | 69 kts | 175° |
| 2026-05-05 16:07 | 40.78690 | -111.97467 | 4230 ft | 23 kts | 188° |
| 2026-05-05 16:08 | 40.78540 | -111.97522 | 4228 ft | 22 kts | 202° |
| 2026-05-05 16:08 | 40.78470 | -111.97615 | 4226 ft | 12 kts | 282° |
| 2026-05-05 16:08 | 40.78538 | -111.97656 | 4229 ft | 11 kts | 353° |
| 2026-05-05 16:08 | 40.78616 | -111.97664 | 4232 ft | 11 kts | 356° |
| 2026-05-05 16:09 | 40.78692 | -111.97674 | 4232 ft | 11 kts | 355° |
| 2026-05-05 16:09 | 40.78766 | -111.97684 | 4231 ft | 10 kts | 353° |
| 2026-05-05 16:09 | 40.78828 | -111.97720 | 4232 ft | 10 kts | 291° |
| 2026-05-05 16:09 | 40.78825 | -111.97812 | 4233 ft | 10 kts | 264° |
| 2026-05-05 16:10 | 40.78815 | -111.97901 | 4233 ft | 10 kts | 262° |
| 2026-05-05 16:10 | 40.78808 | -111.97988 | 4233 ft | 9 kts | 264° |
| 2026-05-05 16:10 | 40.78802 | -111.98072 | 4231 ft | 9 kts | 264° |
| 2026-05-05 16:10 | 40.78796 | -111.98155 | 4231 ft | 9 kts | 265° |
| 2026-05-05 16:11 | 40.78791 | -111.98240 | 4229 ft | 10 kts | 265° |
| 2026-05-05 16:11 | 40.78831 | -111.98425 | 4231 ft | 7 kts | 353° |
| 2026-05-05 16:12 | 40.78855 | -111.98428 | 4231 ft | 0 kts | 354° |